sensor_id;sensor_type;location;lat;lon;timestamp;P1;durP1;ratioP1;P2;durP2;ratioP2
84371;SDS011;74561;50.380;7.626;2024-03-08T00:07:59;20.10;;;10.20;;
84371;SDS011;74561;50.380;7.626;2024-03-08T00:10:44;20.02;;;10.38;;
84371;SDS011;74561;50.380;7.626;2024-03-08T00:13:10;20.00;;;9.63;;
84371;SDS011;74561;50.380;7.626;2024-03-08T00:15:35;21.00;;;10.10;;
84371;SDS011;74561;50.380;7.626;2024-03-08T00:18:00;22.23;;;10.57;;
84371;SDS011;74561;50.380;7.626;2024-03-08T00:20:26;23.88;;;11.02;;
84371;SDS011;74561;50.380;7.626;2024-03-08T00:22:51;24.23;;;10.57;;
84371;SDS011;74561;50.380;7.626;2024-03-08T00:25:16;18.53;;;9.73;;
84371;SDS011;74561;50.380;7.626;2024-03-08T00:27:43;22.60;;;10.73;;
84371;SDS011;74561;50.380;7.626;2024-03-08T00:30:14;21.70;;;10.40;;
84371;SDS011;74561;50.380;7.626;2024-03-08T00:32:39;21.17;;;10.57;;
84371;SDS011;74561;50.380;7.626;2024-03-08T00:35:05;21.35;;;10.55;;
84371;SDS011;74561;50.380;7.626;2024-03-08T00:37:33;25.15;;;11.48;;
84371;SDS011;74561;50.380;7.626;2024-03-08T00:40:02;19.58;;;10.02;;
84371;SDS011;74561;50.380;7.626;2024-03-08T00:42:27;22.33;;;11.00;;
84371;SDS011;74561;50.380;7.626;2024-03-08T00:47:28;19.08;;;9.27;;
84371;SDS011;74561;50.380;7.626;2024-03-08T00:49:53;23.57;;;11.27;;
84371;SDS011;74561;50.380;7.626;2024-03-08T00:52:21;21.52;;;10.93;;
84371;SDS011;74561;50.380;7.626;2024-03-08T00:54:49;21.45;;;9.57;;
84371;SDS011;74561;50.380;7.626;2024-03-08T00:57:14;19.87;;;10.40;;
84371;SDS011;74561;50.380;7.626;2024-03-08T00:59:39;22.83;;;10.80;;
84371;SDS011;74561;50.380;7.626;2024-03-08T01:12:30;24.92;;;10.02;;
84371;SDS011;74561;50.380;7.626;2024-03-08T01:14:55;20.57;;;10.30;;
84371;SDS011;74561;50.380;7.626;2024-03-08T01:19:57;21.83;;;11.27;;
84371;SDS011;74561;50.380;7.626;2024-03-08T01:24:59;23.13;;;10.52;;
84371;SDS011;74561;50.380;7.626;2024-03-08T01:27:24;22.13;;;10.40;;
84371;SDS011;74561;50.380;7.626;2024-03-08T01:29:49;21.42;;;9.90;;
84371;SDS011;74561;50.380;7.626;2024-03-08T01:32:15;20.23;;;10.20;;
84371;SDS011;74561;50.380;7.626;2024-03-08T01:34:41;24.00;;;10.90;;
84371;SDS011;74561;50.380;7.626;2024-03-08T01:37:07;20.75;;;10.57;;
84371;SDS011;74561;50.380;7.626;2024-03-08T01:39:32;23.57;;;10.80;;
84371;SDS011;74561;50.380;7.626;2024-03-08T01:41:58;22.00;;;11.13;;
84371;SDS011;74561;50.380;7.626;2024-03-08T01:54:46;21.15;;;10.50;;
84371;SDS011;74561;50.380;7.626;2024-03-08T01:57:11;20.10;;;10.35;;
84371;SDS011;74561;50.380;7.626;2024-03-08T01:59:37;21.58;;;10.45;;
84371;SDS011;74561;50.380;7.626;2024-03-08T02:17:52;22.42;;;11.05;;
84371;SDS011;74561;50.380;7.626;2024-03-08T02:20:18;22.48;;;10.45;;
84371;SDS011;74561;50.380;7.626;2024-03-08T02:22:45;24.40;;;10.55;;
84371;SDS011;74561;50.380;7.626;2024-03-08T02:25:11;20.27;;;10.13;;
84371;SDS011;74561;50.380;7.626;2024-03-08T02:27:36;24.52;;;11.30;;
84371;SDS011;74561;50.380;7.626;2024-03-08T02:30:01;22.67;;;11.03;;
84371;SDS011;74561;50.380;7.626;2024-03-08T02:32:27;25.42;;;11.23;;
84371;SDS011;74561;50.380;7.626;2024-03-08T02:34:56;25.85;;;11.40;;
84371;SDS011;74561;50.380;7.626;2024-03-08T02:37:21;26.55;;;12.23;;
84371;SDS011;74561;50.380;7.626;2024-03-08T02:39:47;23.43;;;11.40;;
84371;SDS011;74561;50.380;7.626;2024-03-08T02:42:12;23.40;;;10.50;;
84371;SDS011;74561;50.380;7.626;2024-03-08T02:44:39;21.05;;;10.90;;
84371;SDS011;74561;50.380;7.626;2024-03-08T02:47:08;24.00;;;11.35;;
84371;SDS011;74561;50.380;7.626;2024-03-08T02:49:34;26.20;;;11.43;;
84371;SDS011;74561;50.380;7.626;2024-03-08T02:51:59;22.50;;;11.13;;
84371;SDS011;74561;50.380;7.626;2024-03-08T02:54:24;21.93;;;10.10;;
84371;SDS011;74561;50.380;7.626;2024-03-08T02:56:50;22.67;;;10.90;;
84371;SDS011;74561;50.380;7.626;2024-03-08T02:59:16;22.20;;;11.48;;
84371;SDS011;74561;50.380;7.626;2024-03-08T03:01:42;21.50;;;11.52;;
84371;SDS011;74561;50.380;7.626;2024-03-08T03:04:08;22.42;;;11.02;;
84371;SDS011;74561;50.380;7.626;2024-03-08T03:06:33;23.60;;;12.70;;
84371;SDS011;74561;50.380;7.626;2024-03-08T03:08:58;21.45;;;11.23;;
84371;SDS011;74561;50.380;7.626;2024-03-08T03:11:24;26.47;;;11.50;;
84371;SDS011;74561;50.380;7.626;2024-03-08T03:13:49;21.07;;;10.83;;
84371;SDS011;74561;50.380;7.626;2024-03-08T03:16:18;23.43;;;11.17;;
84371;SDS011;74561;50.380;7.626;2024-03-08T03:18:44;23.17;;;11.30;;
84371;SDS011;74561;50.380;7.626;2024-03-08T03:21:11;26.85;;;11.57;;
84371;SDS011;74561;50.380;7.626;2024-03-08T03:23:38;23.35;;;10.52;;
84371;SDS011;74561;50.380;7.626;2024-03-08T03:26:04;22.98;;;11.07;;
84371;SDS011;74561;50.380;7.626;2024-03-08T03:28:32;22.60;;;10.65;;
84371;SDS011;74561;50.380;7.626;2024-03-08T03:30:58;24.38;;;11.55;;
84371;SDS011;74561;50.380;7.626;2024-03-08T03:33:23;20.15;;;11.02;;
84371;SDS011;74561;50.380;7.626;2024-03-08T03:35:49;26.52;;;12.68;;
84371;SDS011;74561;50.380;7.626;2024-03-08T03:38:16;24.27;;;10.60;;
84371;SDS011;74561;50.380;7.626;2024-03-08T03:40:42;24.48;;;11.88;;
84371;SDS011;74561;50.380;7.626;2024-03-08T03:43:10;24.13;;;11.82;;
84371;SDS011;74561;50.380;7.626;2024-03-08T03:45:36;22.20;;;11.73;;
84371;SDS011;74561;50.380;7.626;2024-03-08T03:48:02;27.10;;;11.38;;
84371;SDS011;74561;50.380;7.626;2024-03-08T03:50:28;24.33;;;11.73;;
84371;SDS011;74561;50.380;7.626;2024-03-08T03:52:54;25.97;;;10.73;;
84371;SDS011;74561;50.380;7.626;2024-03-08T03:55:19;24.73;;;12.40;;
84371;SDS011;74561;50.380;7.626;2024-03-08T03:57:45;24.95;;;11.63;;
84371;SDS011;74561;50.380;7.626;2024-03-08T04:00:11;26.60;;;12.25;;
84371;SDS011;74561;50.380;7.626;2024-03-08T04:02:37;25.38;;;11.60;;
84371;SDS011;74561;50.380;7.626;2024-03-08T04:05:04;25.25;;;12.07;;
84371;SDS011;74561;50.380;7.626;2024-03-08T04:07:30;30.20;;;12.48;;
84371;SDS011;74561;50.380;7.626;2024-03-08T04:09:56;22.50;;;10.65;;
84371;SDS011;74561;50.380;7.626;2024-03-08T04:12:22;27.27;;;11.95;;
84371;SDS011;74561;50.380;7.626;2024-03-08T04:38:46;22.30;;;10.75;;
84371;SDS011;74561;50.380;7.626;2024-03-08T04:41:19;22.98;;;11.05;;
84371;SDS011;74561;50.380;7.626;2024-03-08T04:47:26;25.58;;;11.40;;
84371;SDS011;74561;50.380;7.626;2024-03-08T04:50:02;27.50;;;12.13;;
84371;SDS011;74561;50.380;7.626;2024-03-08T04:53:03;27.45;;;11.68;;
84371;SDS011;74561;50.380;7.626;2024-03-08T04:55:36;24.08;;;11.65;;
84371;SDS011;74561;50.380;7.626;2024-03-08T04:59:14;22.65;;;11.35;;
84371;SDS011;74561;50.380;7.626;2024-03-08T05:07:47;26.08;;;11.75;;
84371;SDS011;74561;50.380;7.626;2024-03-08T05:13:00;26.90;;;11.88;;
84371;SDS011;74561;50.380;7.626;2024-03-08T05:15:32;27.48;;;12.68;;
84371;SDS011;74561;50.380;7.626;2024-03-08T05:19:03;25.73;;;11.93;;
84371;SDS011;74561;50.380;7.626;2024-03-08T05:22:03;26.15;;;12.30;;
84371;SDS011;74561;50.380;7.626;2024-03-08T05:28:10;26.67;;;11.07;;
84371;SDS011;74561;50.380;7.626;2024-03-08T05:34:30;29.55;;;12.23;;
84371;SDS011;74561;50.380;7.626;2024-03-08T05:58:34;27.85;;;12.48;;
84371;SDS011;74561;50.380;7.626;2024-03-08T06:00:59;33.80;;;13.00;;
84371;SDS011;74561;50.380;7.626;2024-03-08T06:06:49;26.27;;;12.40;;
84371;SDS011;74561;50.380;7.626;2024-03-08T06:25:46;26.73;;;12.43;;
84371;SDS011;74561;50.380;7.626;2024-03-08T06:36:39;27.63;;;12.95;;
84371;SDS011;74561;50.380;7.626;2024-03-08T06:39:46;29.77;;;13.40;;
84371;SDS011;74561;50.380;7.626;2024-03-08T06:42:31;27.45;;;12.55;;
84371;SDS011;74561;50.380;7.626;2024-03-08T06:45:46;26.05;;;12.30;;
84371;SDS011;74561;50.380;7.626;2024-03-08T06:48:23;29.58;;;13.00;;
84371;SDS011;74561;50.380;7.626;2024-03-08T06:51:19;24.48;;;11.82;;
84371;SDS011;74561;50.380;7.626;2024-03-08T06:54:06;29.58;;;12.40;;
84371;SDS011;74561;50.380;7.626;2024-03-08T06:56:33;26.05;;;12.63;;
84371;SDS011;74561;50.380;7.626;2024-03-08T06:59:02;28.35;;;12.18;;
84371;SDS011;74561;50.380;7.626;2024-03-08T07:01:31;23.67;;;11.77;;
84371;SDS011;74561;50.380;7.626;2024-03-08T07:03:57;26.70;;;13.13;;
84371;SDS011;74561;50.380;7.626;2024-03-08T07:06:22;26.45;;;12.50;;
84371;SDS011;74561;50.380;7.626;2024-03-08T07:08:48;26.70;;;11.97;;
84371;SDS011;74561;50.380;7.626;2024-03-08T07:11:13;25.98;;;12.45;;
84371;SDS011;74561;50.380;7.626;2024-03-08T07:13:43;37.00;;;17.90;;
84371;SDS011;74561;50.380;7.626;2024-03-08T07:16:08;24.63;;;12.10;;
84371;SDS011;74561;50.380;7.626;2024-03-08T07:18:35;27.10;;;14.00;;
84371;SDS011;74561;50.380;7.626;2024-03-08T07:21:04;30.75;;;13.93;;
84371;SDS011;74561;50.380;7.626;2024-03-08T07:23:30;25.03;;;13.77;;
84371;SDS011;74561;50.380;7.626;2024-03-08T07:26:17;26.33;;;12.63;;
84371;SDS011;74561;50.380;7.626;2024-03-08T07:28:43;26.35;;;12.45;;
84371;SDS011;74561;50.380;7.626;2024-03-08T07:31:09;24.87;;;12.60;;
84371;SDS011;74561;50.380;7.626;2024-03-08T07:33:37;22.08;;;12.50;;
84371;SDS011;74561;50.380;7.626;2024-03-08T07:36:03;25.98;;;13.07;;
84371;SDS011;74561;50.380;7.626;2024-03-08T07:38:28;22.67;;;12.27;;
84371;SDS011;74561;50.380;7.626;2024-03-08T07:40:54;21.73;;;11.70;;
84371;SDS011;74561;50.380;7.626;2024-03-08T07:43:22;24.00;;;12.23;;
84371;SDS011;74561;50.380;7.626;2024-03-08T07:45:47;25.05;;;12.10;;
84371;SDS011;74561;50.380;7.626;2024-03-08T07:48:13;24.90;;;12.13;;
84371;SDS011;74561;50.380;7.626;2024-03-08T07:50:38;22.17;;;12.07;;
84371;SDS011;74561;50.380;7.626;2024-03-08T07:53:05;24.70;;;13.18;;
84371;SDS011;74561;50.380;7.626;2024-03-08T07:55:34;20.13;;;11.70;;
84371;SDS011;74561;50.380;7.626;2024-03-08T07:58:00;24.80;;;13.13;;
84371;SDS011;74561;50.380;7.626;2024-03-08T08:00:26;22.27;;;12.52;;
84371;SDS011;74561;50.380;7.626;2024-03-08T08:02:52;23.20;;;11.93;;
84371;SDS011;74561;50.380;7.626;2024-03-08T08:05:18;23.05;;;12.18;;
84371;SDS011;74561;50.380;7.626;2024-03-08T08:07:44;21.87;;;11.70;;
84371;SDS011;74561;50.380;7.626;2024-03-08T08:10:09;22.13;;;11.75;;
84371;SDS011;74561;50.380;7.626;2024-03-08T08:12:41;23.20;;;12.32;;
84371;SDS011;74561;50.380;7.626;2024-03-08T08:15:07;24.23;;;14.05;;
84371;SDS011;74561;50.380;7.626;2024-03-08T08:17:32;23.55;;;12.30;;
84371;SDS011;74561;50.380;7.626;2024-03-08T08:19:59;19.48;;;11.15;;
84371;SDS011;74561;50.380;7.626;2024-03-08T08:22:36;23.05;;;11.48;;
84371;SDS011;74561;50.380;7.626;2024-03-08T08:25:20;19.90;;;11.38;;
84371;SDS011;74561;50.380;7.626;2024-03-08T08:27:49;21.33;;;11.55;;
84371;SDS011;74561;50.380;7.626;2024-03-08T08:30:14;20.07;;;11.70;;
84371;SDS011;74561;50.380;7.626;2024-03-08T08:32:44;19.13;;;11.07;;
84371;SDS011;74561;50.380;7.626;2024-03-08T08:35:49;20.73;;;10.95;;
84371;SDS011;74561;50.380;7.626;2024-03-08T08:38:18;22.52;;;12.10;;
84371;SDS011;74561;50.380;7.626;2024-03-08T08:40:45;22.70;;;12.40;;
84371;SDS011;74561;50.380;7.626;2024-03-08T08:43:13;20.70;;;11.80;;
84371;SDS011;74561;50.380;7.626;2024-03-08T08:45:40;20.27;;;11.52;;
84371;SDS011;74561;50.380;7.626;2024-03-08T08:48:15;20.40;;;11.38;;
84371;SDS011;74561;50.380;7.626;2024-03-08T08:50:41;20.15;;;11.32;;
84371;SDS011;74561;50.380;7.626;2024-03-08T08:53:06;20.60;;;10.70;;
84371;SDS011;74561;50.380;7.626;2024-03-08T08:55:32;20.23;;;11.03;;
84371;SDS011;74561;50.380;7.626;2024-03-08T08:58:00;20.70;;;11.32;;
84371;SDS011;74561;50.380;7.626;2024-03-08T09:00:26;20.40;;;11.20;;
84371;SDS011;74561;50.380;7.626;2024-03-08T09:03:09;20.10;;;10.77;;
84371;SDS011;74561;50.380;7.626;2024-03-08T09:08:08;18.55;;;11.20;;
84371;SDS011;74561;50.380;7.626;2024-03-08T09:10:34;18.48;;;10.50;;
84371;SDS011;74561;50.380;7.626;2024-03-08T09:12:59;22.50;;;11.43;;
84371;SDS011;74561;50.380;7.626;2024-03-08T09:15:24;18.25;;;10.93;;
84371;SDS011;74561;50.380;7.626;2024-03-08T09:17:53;19.00;;;10.63;;
84371;SDS011;74561;50.380;7.626;2024-03-08T09:20:19;18.20;;;10.60;;
84371;SDS011;74561;50.380;7.626;2024-03-08T09:22:45;18.85;;;11.35;;
84371;SDS011;74561;50.380;7.626;2024-03-08T09:45:52;16.85;;;10.40;;
84371;SDS011;74561;50.380;7.626;2024-03-08T09:48:21;17.90;;;10.27;;
84371;SDS011;74561;50.380;7.626;2024-03-08T09:53:36;17.67;;;9.93;;
84371;SDS011;74561;50.380;7.626;2024-03-08T09:56:05;14.77;;;8.52;;
84371;SDS011;74561;50.380;7.626;2024-03-08T10:01:16;15.43;;;9.13;;
84371;SDS011;74561;50.380;7.626;2024-03-08T10:04:02;13.20;;;8.20;;
84371;SDS011;74561;50.380;7.626;2024-03-08T10:06:28;15.00;;;8.38;;
84371;SDS011;74561;50.380;7.626;2024-03-08T10:08:54;15.40;;;8.23;;
84371;SDS011;74561;50.380;7.626;2024-03-08T10:43:10;11.48;;;7.22;;
84371;SDS011;74561;50.380;7.626;2024-03-08T10:45:42;10.85;;;7.10;;
84371;SDS011;74561;50.380;7.626;2024-03-08T10:48:29;12.93;;;7.10;;
84371;SDS011;74561;50.380;7.626;2024-03-08T10:51:04;12.32;;;7.00;;
84371;SDS011;74561;50.380;7.626;2024-03-08T11:51:46;13.68;;;8.32;;
84371;SDS011;74561;50.380;7.626;2024-03-08T11:54:12;13.20;;;8.20;;
84371;SDS011;74561;50.380;7.626;2024-03-08T11:56:40;13.00;;;8.23;;
84371;SDS011;74561;50.380;7.626;2024-03-08T11:59:10;11.73;;;8.50;;
84371;SDS011;74561;50.380;7.626;2024-03-08T12:01:37;14.63;;;8.90;;
84371;SDS011;74561;50.380;7.626;2024-03-08T12:04:04;13.57;;;8.43;;
84371;SDS011;74561;50.380;7.626;2024-03-08T12:06:37;13.90;;;8.48;;
84371;SDS011;74561;50.380;7.626;2024-03-08T12:09:04;14.32;;;8.52;;
84371;SDS011;74561;50.380;7.626;2024-03-08T12:11:35;13.73;;;8.40;;
84371;SDS011;74561;50.380;7.626;2024-03-08T12:14:03;12.95;;;7.32;;
84371;SDS011;74561;50.380;7.626;2024-03-08T12:16:29;14.60;;;8.48;;
84371;SDS011;74561;50.380;7.626;2024-03-08T12:18:54;12.68;;;8.48;;
84371;SDS011;74561;50.380;7.626;2024-03-08T12:21:20;13.68;;;8.55;;
84371;SDS011;74561;50.380;7.626;2024-03-08T12:23:47;14.82;;;8.45;;
84371;SDS011;74561;50.380;7.626;2024-03-08T12:26:25;11.90;;;7.85;;
84371;SDS011;74561;50.380;7.626;2024-03-08T12:28:51;15.50;;;8.45;;
84371;SDS011;74561;50.380;7.626;2024-03-08T12:31:17;13.68;;;7.82;;
84371;SDS011;74561;50.380;7.626;2024-03-08T12:33:51;13.52;;;7.90;;
84371;SDS011;74561;50.380;7.626;2024-03-08T12:36:18;13.25;;;8.40;;
84371;SDS011;74561;50.380;7.626;2024-03-08T12:38:45;13.50;;;8.55;;
84371;SDS011;74561;50.380;7.626;2024-03-08T12:41:16;13.50;;;8.65;;
84371;SDS011;74561;50.380;7.626;2024-03-08T12:46:15;12.63;;;8.45;;
84371;SDS011;74561;50.380;7.626;2024-03-08T12:48:41;15.00;;;8.82;;
84371;SDS011;74561;50.380;7.626;2024-03-08T12:51:06;15.73;;;8.50;;
84371;SDS011;74561;50.380;7.626;2024-03-08T12:53:33;14.13;;;8.25;;
84371;SDS011;74561;50.380;7.626;2024-03-08T12:55:58;12.82;;;8.23;;
84371;SDS011;74561;50.380;7.626;2024-03-08T12:58:24;14.18;;;8.80;;
84371;SDS011;74561;50.380;7.626;2024-03-08T13:00:51;13.63;;;8.30;;
84371;SDS011;74561;50.380;7.626;2024-03-08T13:03:16;13.10;;;8.55;;
84371;SDS011;74561;50.380;7.626;2024-03-08T13:05:42;12.75;;;8.10;;
84371;SDS011;74561;50.380;7.626;2024-03-08T13:08:07;14.10;;;8.00;;
84371;SDS011;74561;50.380;7.626;2024-03-08T13:10:38;12.38;;;7.72;;
84371;SDS011;74561;50.380;7.626;2024-03-08T13:13:04;11.93;;;7.93;;
84371;SDS011;74561;50.380;7.626;2024-03-08T13:15:30;13.70;;;8.80;;
84371;SDS011;74561;50.380;7.626;2024-03-08T13:17:55;13.13;;;8.05;;
84371;SDS011;74561;50.380;7.626;2024-03-08T13:20:23;14.18;;;8.60;;
84371;SDS011;74561;50.380;7.626;2024-03-08T13:22:48;14.17;;;8.67;;
84371;SDS011;74561;50.380;7.626;2024-03-08T13:25:13;14.77;;;8.77;;
84371;SDS011;74561;50.380;7.626;2024-03-08T13:27:40;13.98;;;8.90;;
84371;SDS011;74561;50.380;7.626;2024-03-08T13:30:09;15.25;;;9.38;;
84371;SDS011;74561;50.380;7.626;2024-03-08T13:32:38;12.80;;;7.75;;
84371;SDS011;74561;50.380;7.626;2024-03-08T13:35:05;13.20;;;8.40;;
84371;SDS011;74561;50.380;7.626;2024-03-08T13:37:37;14.23;;;8.68;;
84371;SDS011;74561;50.380;7.626;2024-03-08T13:40:06;12.95;;;8.13;;
84371;SDS011;74561;50.380;7.626;2024-03-08T13:42:35;12.95;;;7.78;;
84371;SDS011;74561;50.380;7.626;2024-03-08T13:45:05;12.55;;;8.15;;
84371;SDS011;74561;50.380;7.626;2024-03-08T13:47:34;12.48;;;7.90;;
84371;SDS011;74561;50.380;7.626;2024-03-08T13:49:59;15.23;;;8.80;;
84371;SDS011;74561;50.380;7.626;2024-03-08T13:52:25;12.15;;;7.68;;
84371;SDS011;74561;50.380;7.626;2024-03-08T13:54:54;12.15;;;7.32;;
84371;SDS011;74561;50.380;7.626;2024-03-08T13:57:19;12.82;;;7.30;;
84371;SDS011;74561;50.380;7.626;2024-03-08T13:59:45;11.48;;;7.32;;
84371;SDS011;74561;50.380;7.626;2024-03-08T14:02:10;11.07;;;7.17;;
84371;SDS011;74561;50.380;7.626;2024-03-08T14:04:38;11.10;;;7.65;;
84371;SDS011;74561;50.380;7.626;2024-03-08T14:07:05;13.90;;;7.47;;
84371;SDS011;74561;50.380;7.626;2024-03-08T14:09:33;12.07;;;7.63;;
84371;SDS011;74561;50.380;7.626;2024-03-08T14:12:02;11.98;;;7.70;;
84371;SDS011;74561;50.380;7.626;2024-03-08T14:14:33;12.95;;;8.25;;
84371;SDS011;74561;50.380;7.626;2024-03-08T14:17:00;13.18;;;7.95;;
84371;SDS011;74561;50.380;7.626;2024-03-08T14:19:29;12.88;;;7.88;;
84371;SDS011;74561;50.380;7.626;2024-03-08T14:21:55;14.07;;;8.88;;
84371;SDS011;74561;50.380;7.626;2024-03-08T14:24:21;12.85;;;8.02;;
84371;SDS011;74561;50.380;7.626;2024-03-08T14:26:46;13.93;;;8.20;;
84371;SDS011;74561;50.380;7.626;2024-03-08T14:29:16;11.90;;;7.53;;
84371;SDS011;74561;50.380;7.626;2024-03-08T14:31:42;13.82;;;7.35;;
84371;SDS011;74561;50.380;7.626;2024-03-08T14:34:08;13.87;;;8.17;;
84371;SDS011;74561;50.380;7.626;2024-03-08T14:36:34;12.65;;;7.22;;
84371;SDS011;74561;50.380;7.626;2024-03-08T14:38:59;13.43;;;7.95;;
84371;SDS011;74561;50.380;7.626;2024-03-08T14:41:25;14.15;;;8.05;;
84371;SDS011;74561;50.380;7.626;2024-03-08T14:43:51;14.55;;;8.25;;
84371;SDS011;74561;50.380;7.626;2024-03-08T14:46:18;13.25;;;8.00;;
84371;SDS011;74561;50.380;7.626;2024-03-08T14:48:55;12.75;;;8.30;;
84371;SDS011;74561;50.380;7.626;2024-03-08T14:51:23;13.35;;;8.10;;
84371;SDS011;74561;50.380;7.626;2024-03-08T14:53:51;12.90;;;8.27;;
84371;SDS011;74561;50.380;7.626;2024-03-08T14:56:20;14.20;;;8.23;;
84371;SDS011;74561;50.380;7.626;2024-03-08T14:58:46;13.10;;;7.75;;
84371;SDS011;74561;50.380;7.626;2024-03-08T15:01:14;13.27;;;7.90;;
84371;SDS011;74561;50.380;7.626;2024-03-08T15:03:40;14.65;;;8.48;;
84371;SDS011;74561;50.380;7.626;2024-03-08T15:06:05;13.70;;;7.65;;
84371;SDS011;74561;50.380;7.626;2024-03-08T15:08:36;14.20;;;8.30;;
84371;SDS011;74561;50.380;7.626;2024-03-08T15:11:02;14.27;;;8.32;;
84371;SDS011;74561;50.380;7.626;2024-03-08T15:13:29;14.40;;;8.00;;
84371;SDS011;74561;50.380;7.626;2024-03-08T15:16:05;14.88;;;8.50;;
84371;SDS011;74561;50.380;7.626;2024-03-08T15:18:34;14.82;;;8.60;;
84371;SDS011;74561;50.380;7.626;2024-03-08T15:21:01;13.30;;;7.53;;
84371;SDS011;74561;50.380;7.626;2024-03-08T15:23:31;15.80;;;8.68;;
84371;SDS011;74561;50.380;7.626;2024-03-08T15:25:59;14.23;;;8.45;;
84371;SDS011;74561;50.380;7.626;2024-03-08T15:28:26;13.55;;;8.23;;
84371;SDS011;74561;50.380;7.626;2024-03-08T15:31:00;13.90;;;8.90;;
84371;SDS011;74561;50.380;7.626;2024-03-08T15:33:30;13.85;;;7.72;;
84371;SDS011;74561;50.380;7.626;2024-03-08T15:35:56;13.68;;;7.68;;
84371;SDS011;74561;50.380;7.626;2024-03-08T15:38:28;15.77;;;8.38;;
84371;SDS011;74561;50.380;7.626;2024-03-08T15:40:54;14.95;;;8.13;;
84371;SDS011;74561;50.380;7.626;2024-03-08T15:45:51;15.15;;;8.63;;
84371;SDS011;74561;50.380;7.626;2024-03-08T15:48:16;15.18;;;8.30;;
84371;SDS011;74561;50.380;7.626;2024-03-08T15:50:42;15.70;;;9.05;;
84371;SDS011;74561;50.380;7.626;2024-03-08T15:53:07;15.38;;;9.18;;
84371;SDS011;74561;50.380;7.626;2024-03-08T15:55:33;17.17;;;9.37;;
84371;SDS011;74561;50.380;7.626;2024-03-08T15:58:00;20.02;;;9.52;;
84371;SDS011;74561;50.380;7.626;2024-03-08T16:03:50;18.00;;;9.27;;
84371;SDS011;74561;50.380;7.626;2024-03-08T16:08:51;15.60;;;8.80;;
84371;SDS011;74561;50.380;7.626;2024-03-08T16:11:17;18.93;;;9.10;;
84371;SDS011;74561;50.380;7.626;2024-03-08T16:19:04;21.75;;;9.77;;
84371;SDS011;74561;50.380;7.626;2024-03-08T16:24:54;18.65;;;9.77;;
84371;SDS011;74561;50.380;7.626;2024-03-08T16:30:43;17.60;;;9.77;;
84371;SDS011;74561;50.380;7.626;2024-03-08T16:33:15;17.58;;;9.88;;
84371;SDS011;74561;50.380;7.626;2024-03-08T16:35:41;19.17;;;10.50;;
84371;SDS011;74561;50.380;7.626;2024-03-08T16:39:04;23.80;;;11.05;;
84371;SDS011;74561;50.380;7.626;2024-03-08T16:44:51;21.27;;;10.52;;
84371;SDS011;74561;50.380;7.626;2024-03-08T16:47:35;21.98;;;13.52;;
84371;SDS011;74561;50.380;7.626;2024-03-08T17:16:33;17.85;;;9.05;;
84371;SDS011;74561;50.380;7.626;2024-03-08T17:19:01;21.35;;;11.15;;
84371;SDS011;74561;50.380;7.626;2024-03-08T17:34:13;19.10;;;11.57;;
84371;SDS011;74561;50.380;7.626;2024-03-08T17:57:52;35.38;;;16.33;;
84371;SDS011;74561;50.380;7.626;2024-03-08T18:02:53;18.40;;;9.82;;
84371;SDS011;74561;50.380;7.626;2024-03-08T18:05:19;19.27;;;10.52;;
84371;SDS011;74561;50.380;7.626;2024-03-08T18:28:18;19.80;;;9.05;;
84371;SDS011;74561;50.380;7.626;2024-03-08T18:33:19;18.20;;;9.48;;
84371;SDS011;74561;50.380;7.626;2024-03-08T18:51:23;32.00;;;15.77;;
84371;SDS011;74561;50.380;7.626;2024-03-08T18:53:50;22.60;;;12.38;;
84371;SDS011;74561;50.380;7.626;2024-03-08T19:22:18;19.20;;;8.65;;
84371;SDS011;74561;50.380;7.626;2024-03-08T20:26:47;15.98;;;7.97;;
84371;SDS011;74561;50.380;7.626;2024-03-08T20:29:13;16.83;;;7.93;;
84371;SDS011;74561;50.380;7.626;2024-03-08T20:32:19;18.02;;;8.43;;
84371;SDS011;74561;50.380;7.626;2024-03-08T20:34:59;19.13;;;9.18;;
84371;SDS011;74561;50.380;7.626;2024-03-08T20:37:38;17.13;;;8.57;;
84371;SDS011;74561;50.380;7.626;2024-03-08T20:43:37;16.95;;;8.40;;
84371;SDS011;74561;50.380;7.626;2024-03-08T20:46:03;17.83;;;8.27;;
84371;SDS011;74561;50.380;7.626;2024-03-08T20:48:34;15.88;;;8.13;;
84371;SDS011;74561;50.380;7.626;2024-03-08T20:51:00;17.08;;;8.45;;
84371;SDS011;74561;50.380;7.626;2024-03-08T20:53:26;14.27;;;7.97;;
84371;SDS011;74561;50.380;7.626;2024-03-08T20:55:53;13.65;;;8.25;;
84371;SDS011;74561;50.380;7.626;2024-03-08T20:58:19;17.58;;;9.02;;
84371;SDS011;74561;50.380;7.626;2024-03-08T21:01:04;17.20;;;8.52;;
84371;SDS011;74561;50.380;7.626;2024-03-08T21:03:41;15.88;;;9.50;;
84371;SDS011;74561;50.380;7.626;2024-03-08T21:06:06;14.70;;;8.00;;
84371;SDS011;74561;50.380;7.626;2024-03-08T21:08:32;16.98;;;9.32;;
84371;SDS011;74561;50.380;7.626;2024-03-08T21:10:59;16.67;;;8.43;;
84371;SDS011;74561;50.380;7.626;2024-03-08T21:13:29;16.98;;;8.35;;
84371;SDS011;74561;50.380;7.626;2024-03-08T21:15:55;17.77;;;8.10;;
84371;SDS011;74561;50.380;7.626;2024-03-08T21:18:26;16.85;;;7.85;;
84371;SDS011;74561;50.380;7.626;2024-03-08T21:20:51;15.00;;;8.05;;
84371;SDS011;74561;50.380;7.626;2024-03-08T21:23:17;15.90;;;8.32;;
84371;SDS011;74561;50.380;7.626;2024-03-08T21:25:44;16.73;;;7.63;;
84371;SDS011;74561;50.380;7.626;2024-03-08T21:28:09;14.52;;;7.57;;
84371;SDS011;74561;50.380;7.626;2024-03-08T21:30:36;15.18;;;8.43;;
84371;SDS011;74561;50.380;7.626;2024-03-08T21:33:02;15.88;;;7.97;;
84371;SDS011;74561;50.380;7.626;2024-03-08T21:35:30;14.15;;;8.02;;
84371;SDS011;74561;50.380;7.626;2024-03-08T21:37:58;15.82;;;7.43;;
84371;SDS011;74561;50.380;7.626;2024-03-08T21:40:24;15.70;;;8.00;;
84371;SDS011;74561;50.380;7.626;2024-03-08T21:42:54;16.83;;;8.38;;
84371;SDS011;74561;50.380;7.626;2024-03-08T21:45:21;16.92;;;8.00;;
84371;SDS011;74561;50.380;7.626;2024-03-08T21:47:47;15.02;;;7.97;;
84371;SDS011;74561;50.380;7.626;2024-03-08T21:50:23;15.55;;;7.25;;
84371;SDS011;74561;50.380;7.626;2024-03-08T22:29:11;14.25;;;7.82;;
84371;SDS011;74561;50.380;7.626;2024-03-08T22:39:22;14.73;;;8.07;;
84371;SDS011;74561;50.380;7.626;2024-03-08T22:41:48;15.48;;;6.88;;
84371;SDS011;74561;50.380;7.626;2024-03-08T22:57:21;14.10;;;8.10;;
84371;SDS011;74561;50.380;7.626;2024-03-08T22:59:47;17.97;;;8.33;;
84371;SDS011;74561;50.380;7.626;2024-03-08T23:02:14;13.93;;;7.20;;
84371;SDS011;74561;50.380;7.626;2024-03-08T23:07:37;15.27;;;7.65;;
84371;SDS011;74561;50.380;7.626;2024-03-08T23:30:56;12.68;;;6.65;;
84371;SDS011;74561;50.380;7.626;2024-03-08T23:36:24;15.15;;;7.93;;
84371;SDS011;74561;50.380;7.626;2024-03-08T23:41:26;13.15;;;7.45;;
84371;SDS011;74561;50.380;7.626;2024-03-08T23:43:59;16.42;;;7.40;;
84371;SDS011;74561;50.380;7.626;2024-03-08T23:57:06;14.73;;;7.75;;
84371;SDS011;74561;50.380;7.626;2024-03-08T23:59:37;14.77;;;7.67;;
